Mahnomen, MN

3:46 AM CDT on April 02, 2015 (GMT -0500)
Fosston Municipal | | Change Station
CLOSE
Current Station
Airport
Location: Fosston,
Elevation: 1276 ft
Nearby Weather Stations

Elev 1276 ft 47.59 °N, 95.77 °W | Updated 11 minutes ago

Partly Cloudy
Partly Cloudy
30 °F
Feels Like 22 °F
N
9
Wind Variable Wind from SSW

Today
High -- | Low -- °F
--% Chance of Precip.
Yesterday
High -- | Low -- °F
Precip. -- in
7:01 AM 7:54 PM
Waxing Gibbous, 96% visible
Pressure 29.63 in
Visibility 10.0 miles
Clouds Clear
Windchill 22 °F
Dew Point 28 °F
Humidity 93%
Rainfall 0.00 in
Snow Depth Not available.
UV 0 out of 12
Pollen 5.50 out of 12
Air Quality Not available.
Flu Activity Not available.
METAR KFSE 020835Z AUTO 21008KT 10SM CLR M01/M02 A2963 RMK AO2

More Conditions Fewer Conditions

Pressure 29.63 in
Visibility 10.0 miles
Clouds Clear
Windchill 22 °F
Dew Point 28 °F
Humidity 93%
Rainfall 0.00 in
Snow Depth Not available.
UV 0 out of 12
Pollen 5.50 out of 12
Air Quality Not available.
Flu Activity Not available.
METAR KFSE 020835Z AUTO 21008KT 10SM CLR M01/M02 A2963 RMK AO2

More Conditions Fewer Conditions

10-Day Weather Forecast

Almanac

Astronomy

Apr. 02, 2015 Rise Set
Actual Time
Civil Twilight
Nautical Twilight
Astronomical Twilight
Moon
Length of Visible Light
Length of Day
Tomorrow will be .
, % of the Moon is Illuminated

Today's Extremes

State Highs State Lows

Community

WunderPhotos

Upload Photos

1,810,208 photos uploaded!

WunderBlogs® & News

Nearby

Air Quality

  Air Quality AQ Index Pollutant
Not available.

Snow Depth

Station Depth Elevation

Earthquake Activity

City Distance Mag. Time & Date
Minimum magnitude displayed is 2.5.

Coastal Water Temperatures

Place Temperature

Stations

Nearby Weather Stations

Station Location Temp. Windchill Dew Point Humidity Wind Precip. Elev Updated Type